Huvudsida
METAR-TAF:

METAR-TAF

Flygplatser :

Tiranas internationella flygplats Moder Teresa

Tirana, Albanien

latitud: 41-20N, longitud: 019-47E, höjd: 89 m

Aktuellt väderrapport

Denna rapport gjordes för 25 minuter sedan, klockan 14:20 UTC
Vind 8 kt från ost/nordost i byarna ända upp till 18 kt, varierande mellan nord och ost
Temperatur 36°C
Fuktighet 33%
Tryck 1016 hPa
Sikt 10 km eller mer
Få moln på en höjd av 12000 ft

METAR: LATI 261420Z 06008G18KT 010V090 9999 FEW120 36/17 Q1016 NOSIG

Tid: 16:45 (14:45 UTC)

Väderprognos

Denna rapport gjordes för 3 timmar och 45 minuter sedan, klockan 11:00 UTC
Prognos gäller från 26 kl. 12 UTC till 27 kl. 12 UTC
Vind 10 kt från nord/nordväst
Sikt 10 km eller mer
Inga moln under 1 500 m eller inga cumulonimbus
Blir
från 26 kl. 17 UTC till 26 kl. 19 UTC
Vind 3 kt varierande vindriktning

TAF: LATI 261100Z 2612/2712 34010KT CAVOK TX35/2612Z TN21/2704Z BECMG 2617/2619 VRB03KT

Aktuella väderrapporter och prognoser från 4000 flygplatser (METAR- och TAF-rapporter).

De tillgängliga stationerna syns som gula och röda prickar på kartan.

För musen över prickarna för att se namnen på stationerna.

Klicka sedan för att få väderrapporter och prognoser.

För att ändra kartan: Klicka på de gröna knapparna med ett svart kors på för att zooma in; den gröna knappen med ett streck på för att zooma ut; eller på de gröna pilarna för angränsande kartor.


METAR-TAF: